• Join FlightAware (Why Join?)
  • Login
  • US Flag 
04:52PM EDT


 

Airport Tracker/Info


-or-


 

Live Flight TrackerFlight Track Log ✈ UAL1036 ✈ 26-Jun-2013 ✈ SEQM / UIO - KIAH

Flight Track Log - Related Links

Times and Time Zones

All times are in EDT time to prevent confusion due to time zone crossing. See the UAL1036 flight status page for this flight to view local times or setup timezone preferences in your user account.

Time Position Orientation Groundspeed Altitude Reporting Facility
EDT Latitude Longitude Course Direction KTS MPH feet Rate Location/Type
01:13AM 0.5470 -78.7591 339° North  Level FlightAware Approximate
01:14AM 0.6616 -78.8042 339° North  Level FlightAware Approximate
01:15AM 0.7763 -78.8494 339° North  Level FlightAware Approximate
01:16AM 0.8910 -78.8945 339° North  Level FlightAware Approximate
01:17AM 1.0057 -78.9397 339° North  Level FlightAware Approximate
01:18AM 1.1204 -78.9848 339° North  Level FlightAware Approximate
01:19AM 1.2346 -79.0298 339° North  Level FlightAware Approximate
01:20AM 1.3489 -79.0748 339° North  Level FlightAware Approximate
01:21AM 1.4632 -79.1198 339° North  Level FlightAware Approximate
01:22AM 1.5775 -79.1649 339° North  Level FlightAware Approximate
01:23AM 1.6751 -79.2041 334° Northwest  Level FlightAware Approximate
01:24AM 1.7856 -79.2576 334° Northwest  Level FlightAware Approximate
01:25AM 1.8962 -79.3111 334° Northwest  Level FlightAware Approximate
01:26AM 2.0068 -79.3646 334° Northwest  Level FlightAware Approximate
01:27AM 2.1173 -79.4181 334° Northwest  Level FlightAware Approximate
01:28AM 2.2279 -79.4716 334° Northwest  Level FlightAware Approximate
01:29AM 2.3384 -79.5251 334° Northwest  Level FlightAware Approximate
01:30AM 2.4490 -79.5787 334° Northwest  Level FlightAware Approximate
01:31AM 2.5595 -79.6322 334° Northwest  Level FlightAware Approximate
01:32AM 2.6701 -79.6858 334° Northwest  Level FlightAware Approximate
01:33AM 2.7806 -79.7393 334° Northwest  Level FlightAware Approximate
01:34AM 2.8912 -79.7929 334° Northwest  Level FlightAware Approximate
01:35AM 3.0017 -79.8465 334° Northwest  Level FlightAware Approximate
01:36AM 3.1123 -79.9001 334° Northwest  Level FlightAware Approximate
01:37AM 3.2228 -79.9537 334° Northwest  Level FlightAware Approximate
01:38AM 3.3333 -80.0073 334° Northwest  Level FlightAware Approximate
01:39AM 3.4439 -80.0609 334° Northwest  Level FlightAware Approximate
01:40AM 3.5544 -80.1146 334° Northwest  Level FlightAware Approximate
01:41AM 3.6649 -80.1682 334° Northwest  Level FlightAware Approximate
01:42AM 3.7754 -80.2219 334° Northwest  Level FlightAware Approximate
01:43AM 3.8861 -80.2754 334° Northwest  Level FlightAware Approximate
01:44AM 3.9968 -80.3286 334° Northwest  Level FlightAware Approximate
01:45AM 4.1075 -80.3818 334° Northwest  Level FlightAware Approximate
01:46AM 4.2183 -80.4351 334° Northwest  Level FlightAware Approximate
01:47AM 4.3290 -80.4884 334° Northwest  Level FlightAware Approximate
01:48AM 4.4397 -80.5417 334° Northwest  Level FlightAware Approximate
01:49AM 4.5504 -80.5950 334° Northwest  Level FlightAware Approximate
01:50AM 4.6611 -80.6483 334° Northwest  Level FlightAware Approximate
01:51AM 4.7719 -80.7017 334° Northwest  Level FlightAware Approximate
01:52AM 4.8826 -80.7550 334° Northwest  Level FlightAware Approximate
01:53AM 4.9945 -80.8090 334° Northwest  Level FlightAware Approximate
01:54AM 5.1063 -80.8629 334° Northwest  Level FlightAware Approximate
01:55AM 5.2182 -80.9169 334° Northwest  Level FlightAware Approximate
01:56AM 5.3301 -80.9709 334° Northwest  Level FlightAware Approximate
01:57AM 5.4420 -81.0250 334° Northwest  Level FlightAware Approximate
01:58AM 5.5538 -81.0790 334° Northwest  Level FlightAware Approximate
01:59AM 5.6657 -81.1331 334° Northwest  Level FlightAware Approximate
02:00AM 5.7775 -81.1872 334° Northwest  Level FlightAware Approximate
02:01AM 5.8894 -81.2413 334° Northwest  Level FlightAware Approximate
02:02AM 6.0012 -81.2954 334° Northwest  Level FlightAware Approximate
02:03AM 6.1131 -81.3496 334° Northwest  Level FlightAware Approximate
02:04AM 6.2249 -81.4037 334° Northwest  Level FlightAware Approximate
02:05AM 6.3367 -81.4579 334° Northwest  Level FlightAware Approximate
02:06AM 6.4486 -81.5122 334° Northwest  Level FlightAware Approximate
02:07AM 6.5604 -81.5664 334° Northwest  Level FlightAware Approximate
02:08AM 6.6722 -81.6207 334° Northwest  Level FlightAware Approximate
02:09AM 6.7840 -81.6750 334° Northwest  Level FlightAware Approximate
02:10AM 6.8958 -81.7293 334° Northwest  Level FlightAware Approximate
02:11AM 7.0076 -81.7837 334° Northwest  Level FlightAware Approximate
02:12AM 7.1194 -81.8380 334° Northwest  Level FlightAware Approximate
02:13AM 7.2312 -81.8924 334° Northwest  Level FlightAware Approximate
02:14AM 7.3429 -81.9469 334° Northwest  Level FlightAware Approximate
02:15AM 7.4547 -82.0013 334° Northwest  Level FlightAware Approximate
02:16AM 7.5665 -82.0558 334° Northwest  Level FlightAware Approximate
02:17AM 7.6782 -82.1103 334° Northwest  Level FlightAware Approximate
02:18AM 7.7899 -82.1648 334° Northwest  Level FlightAware Approximate
02:19AM 7.9017 -82.2194 334° Northwest  Level FlightAware Approximate
02:20AM 8.0134 -82.2740 334° Northwest  Level FlightAware Approximate
02:21AM 8.1251 -82.3287 334° Northwest  Level FlightAware Approximate
02:22AM 8.2369 -82.3833 334° Northwest  Level FlightAware Approximate
02:23AM 8.3486 -82.4380 334° Northwest  Level FlightAware Approximate
02:24AM 8.4603 -82.4927 334° Northwest  Level FlightAware Approximate
02:25AM 8.5720 -82.5475 334° Northwest  Level FlightAware Approximate
02:26AM 8.6837 -82.6023 334° Northwest  Level FlightAware Approximate
02:27AM 8.7954 -82.6571 334° Northwest  Level FlightAware Approximate
02:28AM 8.9070 -82.7119 334° Northwest  Level FlightAware Approximate
02:29AM 9.0184 -82.7675 334° Northwest  Level FlightAware Approximate
02:30AM 9.1297 -82.8231 334° Northwest  Level FlightAware Approximate
02:31AM 9.2410 -82.8788 334° Northwest  Level FlightAware Approximate
02:32AM 9.3524 -82.9343 334° Northwest  Level FlightAware Approximate
02:32AM 8.8120 -84.0190 334° Northwest 457 526 36,000  Level FlightAware
02:33AM 9.4639 -82.9895 334° Northwest  Level FlightAware Approximate
02:33AM 8.8950 -84.0590 335° Northwest 456 525 36,000  Level FlightAware
02:34AM 8.9700 -84.0940 335° Northwest 455 524 36,000  Level FlightAware
02:35AM 9.0580 -84.1360 335° Northwest 454 522 36,000  Level FlightAware
02:35AM 9.1360 -84.1730 335° Northwest 453 521 36,000  Level FlightAware
02:36AM 9.2160 -84.2110 335° Northwest 452 520 36,000  Level FlightAware
02:37AM 9.2970 -84.2500 335° Northwest 455 524 36,000  Level FlightAware
02:37AM 9.3690 -84.2840 335° Northwest 455 524 36,000  Level FlightAware
02:38AM 9.4620 -84.3280 335° Northwest 455 524 36,000  Level FlightAware
02:39AM 9.5380 -84.3650 334° Northwest 455 524 36,000  Level FlightAware
02:39AM 9.6140 -84.4010 335° Northwest 457 526 36,000  Level FlightAware
02:40AM 9.6980 -84.4410 335° Northwest 458 527 36,000  Level FlightAware
02:41AM 9.7720 -84.4760 335° Northwest 458 527 36,000  Level FlightAware
02:42AM 9.8590 -84.5180 335° Northwest 458 527 36,000  Level FlightAware
02:42AM 9.9450 -84.5590 335° Northwest 457 526 36,000  Level FlightAware
02:43AM 10.0210 -84.5950 335° Northwest 457 526 36,000  Level FlightAware
02:44AM 10.1060 -84.6360 335° Northwest 457 526 36,000  Level FlightAware
02:44AM 10.1810 -84.6720 335° Northwest 456 525 36,000  Level FlightAware
02:45AM 10.2660 -84.7130 335° Northwest 456 525 36,000  Level FlightAware
02:46AM 10.3470 -84.7520 335° Northwest 456 525 36,000  Level FlightAware
02:46AM 10.4230 -84.7880 335° Northwest 457 526 36,000  Level FlightAware
02:47AM 10.5070 -84.8290 334° Northwest 457 526 36,000  Level FlightAware
02:48AM 10.5850 -84.8660 335° Northwest 458 527 36,000  Level FlightAware
02:49AM 10.6690 -84.9060 335° Northwest 458 527 36,000  Level FlightAware
02:49AM 10.7460 -84.9430 335° Northwest 458 527 36,000  Level FlightAware
02:50AM 10.8280 -84.9830 334° Northwest 457 526 36,000  Level FlightAware
02:51AM 10.9070 -85.0210 335° Northwest 456 525 36,000  Level FlightAware
02:51AM 10.9830 -85.0570 335° Northwest 454 522 36,000  Level FlightAware
02:52AM 11.0670 -85.0980 334° Northwest 451 519 36,000  Level FlightAware
02:53AM 11.1430 -85.1340 335° Northwest 449 517 36,000 240 Level FlightAware
02:53AM 11.2250 -85.1740 334° Northwest 452 520 36,400 600 Climbing FlightAware
02:54AM 11.3090 -85.2150 334° Northwest 452 520 36,900 600 Climbing FlightAware
02:55AM 11.3740 -85.2460 335° Northwest 457 526 37,200 420 Climbing FlightAware
02:56AM 11.4650 -85.2900 335° Northwest 463 533 37,500 420 Climbing FlightAware
02:56AM 11.5720 -85.3420 335° Northwest 461 531 38,000 300 Climbing FlightAware
02:57AM 11.6370 -85.3740 334° Northwest 461 531 38,000  Level FlightAware
02:58AM 11.7150 -85.4130 334° Northwest 461 531 38,000  Level FlightAware
02:59AM 11.7750 -85.4430 334° Northwest 461 531 38,000  Level FlightAware
02:59AM 11.8340 -85.4720 334° Northwest 461 531 38,000  Level FlightAware
03:02AM 12.1033 -85.6022 335° Northwest  Level Estimated
03:03AM 12.2155 -85.6565 335° Northwest  Level Estimated
03:03AM 12.1870 -85.6480 335° Northwest 461 531 38,000  Level FlightAware
03:03AM 12.2460 -85.6780 334° Northwest 461 531 38,000  Level FlightAware
03:04AM 12.3240 -85.7170 334° Northwest 461 531 38,000  Level FlightAware
03:05AM 12.3830 -85.7460 334° Northwest 461 531 38,000  Level FlightAware
03:06AM 12.4630 -85.7860 334° Northwest 461 531 38,000  Level FlightAware
03:06AM 12.5210 -85.8150 334° Northwest 461 531 38,000  Level FlightAware
03:09AM 12.7865 -85.9439 335° Northwest  Level Estimated
03:10AM 12.8986 -85.9985 335° Northwest  Level Estimated
03:11AM 13.0108 -86.0531 335° Northwest  Level Estimated
03:12AM 13.1229 -86.1078 335° Northwest  Level Estimated
03:13AM 13.2350 -86.1625 335° Northwest  Level Estimated
03:14AM 13.3471 -86.2172 335° Northwest  Level Estimated
03:15AM 13.4592 -86.2720 335° Northwest  Level Estimated
03:16AM 13.5713 -86.3269 335° Northwest  Level Estimated
03:17AM 13.6834 -86.3818 335° Northwest  Level Estimated
03:18AM 13.7954 -86.4368 335° Northwest  Level Estimated
03:19AM 13.9075 -86.4918 335° Northwest  Level Estimated
03:20AM 14.0195 -86.5469 335° Northwest  Level Estimated
03:21AM 14.1315 -86.6020 334° Northwest  Level Estimated
03:22AM 14.2435 -86.6572 334° Northwest  Level Estimated
03:23AM 14.3555 -86.7124 334° Northwest  Level Estimated
03:24AM 14.4675 -86.7677 334° Northwest  Level Estimated
03:25AM 14.5795 -86.8231 334° Northwest  Level Estimated
03:26AM 14.6914 -86.8785 334° Northwest  Level Estimated
03:27AM 14.8034 -86.9339 334° Northwest  Level Estimated
03:28AM 14.9141 -86.9889 334° Northwest  Level Estimated
03:29AM 15.0248 -87.0439 334° Northwest  Level Estimated
03:30AM 15.1356 -87.0989 334° Northwest  Level Estimated
03:31AM 15.2463 -87.1540 334° Northwest  Level Estimated
03:32AM 15.3570 -87.2092 334° Northwest  Level Estimated
03:33AM 15.4677 -87.2644 334° Northwest  Level Estimated
03:34AM 15.5783 -87.3197 334° Northwest  Level Estimated
03:35AM 15.6890 -87.3750 334° Northwest  Level Estimated
03:36AM 15.7996 -87.4304 334° Northwest  Level Estimated
03:37AM 15.9102 -87.4859 334° Northwest  Level Estimated
03:38AM 16.0208 -87.5414 334° Northwest  Level Estimated
03:39AM 16.1314 -87.5970 334° Northwest  Level Estimated
03:40AM 16.2420 -87.6526 334° Northwest  Level Estimated
03:41AM 16.3526 -87.7083 334° Northwest  Level Estimated
03:42AM 16.4631 -87.7641 334° Northwest  Level Estimated
03:43AM 16.5737 -87.8199 334° Northwest  Level Estimated
03:44AM 16.6842 -87.8758 334° Northwest  Level Estimated
03:45AM 16.7947 -87.9317 334° Northwest  Level Estimated
03:46AM 16.9052 -87.9878 334° Northwest  Level Estimated
03:47AM 17.0157 -88.0439 334° Northwest  Level Estimated
03:48AM 17.1261 -88.1000 334° Northwest  Level Estimated
03:49AM 17.2362 -88.1560 334° Northwest  Level Estimated
03:50AM 17.3462 -88.2121 334° Northwest  Level Estimated
03:51AM 17.4562 -88.2683 334° Northwest  Level Estimated
03:52AM 17.5662 -88.3245 334° Northwest  Level Estimated
03:53AM 17.6762 -88.3808 334° Northwest  Level Estimated
03:54AM 17.7862 -88.4372 334° Northwest  Level Estimated
03:55AM 17.8962 -88.4936 334° Northwest  Level Estimated
03:56AM 18.0061 -88.5501 334° Northwest  Level Estimated
03:57AM 18.1161 -88.6067 334° Northwest  Level Estimated
03:57AM 18.5410 -88.4670 334° Northwest 454 522 38,000  Level FlightAware
03:58AM 18.2260 -88.6633 334° Northwest  Level Estimated
03:58AM 18.6020 -88.4800 349° North 454 522 38,000  Level FlightAware
03:59AM 18.6860 -88.4990 348° North 454 522 38,000  Level FlightAware
04:00AM 18.8390 -88.5330 348° North 466 536 38,000  Level FlightAware
04:00AM 18.9270 -88.5520 348° North 466 536 38,000  Level FlightAware
04:01AM 18.9910 -88.5670 348° North 466 536 38,000  Level FlightAware
04:02AM 19.1150 -88.5940 348° North 467 537 38,000  Level FlightAware
04:03AM 19.2360 -88.6210 348° North 466 536 38,000  Level FlightAware
04:03AM 19.3140 -88.6390 348° North 464 534 38,000  Level FlightAware
04:04AM 19.3970 -88.6580 348° North 463 533 38,000  Level FlightAware
04:05AM 19.4810 -88.6770 348° North 462 532 38,000  Level FlightAware
04:05AM 19.5890 -88.7010 348° North 460 529 38,000  Level FlightAware
04:06AM 19.6760 -88.7200 348° North 461 531 38,000  Level FlightAware
04:07AM 19.7630 -88.7400 348° North 464 534 38,000  Level FlightAware
04:08AM 19.8610 -88.7620 348° North 466 536 38,000  Level FlightAware
04:09AM 19.9750 -88.7880 348° North 465 535 38,000  Level FlightAware
04:09AM 20.0610 -88.8070 348° North 465 535 38,000  Level FlightAware
04:10AM 20.1530 -88.8280 348° North 464 534 38,000  Level FlightAware
04:11AM 20.2320 -88.8460 348° North 462 532 38,000  Level FlightAware
04:11AM 20.3280 -88.8680 348° North 461 531 38,000  Level FlightAware
04:12AM 20.4130 -88.8870 348° North 461 531 38,000  Level FlightAware
04:13AM 20.5090 -88.9090 348° North 463 533 38,000  Level FlightAware
04:13AM 20.5930 -88.9280 348° North 464 534 38,000  Level FlightAware
04:14AM 20.6850 -88.9490 348° North 464 534 38,000  Level FlightAware
04:16AM 20.9250 -89.0040 348° North 466 536 38,000  Level FlightAware
04:17AM 21.0190 -89.0260 348° North 465 535 38,000  Level FlightAware
04:18AM 21.1120 -89.0470 348° North 465 535 38,000  Level FlightAware
04:18AM 21.2010 -89.0670 348° North 464 534 38,000  Level FlightAware
04:19AM 21.2830 -89.0860 348° North 462 532 38,000  Level FlightAware
04:20AM 21.4040 -89.1140 348° North 462 532 38,000  Level FlightAware
04:21AM 21.5230 -89.1410 348° North 464 534 38,000  Level FlightAware
04:21AM 21.6010 -89.1590 348° North 465 535 38,000  Level FlightAware
04:22AM 21.7170 -89.1870 347° North 466 536 38,000  Level FlightAware
04:23AM 21.8140 -89.2080 349° North 467 537 38,000  Level FlightAware
04:24AM 21.9160 -89.2330 347° North 467 537 38,000  Level FlightAware
04:26AM 22.1010 -89.2760 348° North 468 539 38,000  Level FlightAware
04:26AM 22.1760 -89.2930 348° North 468 539 38,000  Level FlightAware
04:27AM 22.2560 -89.3120 348° North 468 539 38,000  Level FlightAware
04:28AM 22.3420 -89.3340 347° North 468 539 38,000  Level FlightAware
04:28AM 22.4140 -89.3510 348° North 468 539 38,000  Level FlightAware
04:29AM 22.5000 -89.3730 347° North 468 539 38,000  Level FlightAware
04:29AM 22.5430 -89.3840 347° North 468 539 38,000  Level FlightAware
04:31AM 22.7370 -89.4320 347° North 468 539 38,000  Level FlightAware
04:32AM 22.8030 -89.4490 347° North 468 539 38,000  Level FlightAware
04:33AM 22.8890 -89.4700 347° North 468 539 38,000  Level FlightAware
04:33AM 22.9520 -89.4860 347° North 468 539 38,000  Level FlightAware
04:34AM 23.0400 -89.5080 347° North 468 539 38,000  Level FlightAware
04:35AM 23.1040 -89.5240 347° North 468 539 38,000  Level FlightAware
04:35AM 23.1890 -89.5450 347° North 468 539 38,000  Level FlightAware
04:36AM 23.2550 -89.5620 347° North 468 539 38,000  Level FlightAware
04:39AM 23.5517 -89.6271 349° North  Level FlightAware Approximate
04:40AM 23.6731 -89.6538 349° North  Level FlightAware Approximate
04:41AM 23.7945 -89.6805 349° North  Level FlightAware Approximate
04:42AM 23.9159 -89.7073 349° North  Level FlightAware Approximate
04:43AM 24.0373 -89.7342 349° North  Level FlightAware Approximate
04:44AM 24.1586 -89.7611 349° North  Level FlightAware Approximate
04:45AM 24.2800 -89.7881 349° North  Level FlightAware Approximate
04:46AM 24.4014 -89.8151 349° North  Level FlightAware Approximate
04:47AM 24.5175 -89.8636 325° Northwest  Level FlightAware Approximate
04:48AM 24.6188 -89.9420 325° Northwest  Level FlightAware Approximate
04:49AM 24.7200 -90.0205 325° Northwest  Level FlightAware Approximate
04:50AM 24.8211 -90.0992 325° Northwest  Level FlightAware Approximate
04:51AM 24.9223 -90.1780 325° Northwest  Level FlightAware Approximate
04:52AM 25.0233 -90.2569 325° Northwest  Level FlightAware Approximate
04:53AM 25.1244 -90.3360 325° Northwest  Level FlightAware Approximate
04:54AM 25.2254 -90.4152 325° Northwest  Level FlightAware Approximate
04:55AM 25.3263 -90.4945 325° Northwest  Level FlightAware Approximate
04:56AM 25.4282 -90.5724 325° Northwest  Level FlightAware Approximate
04:57AM 25.5301 -90.6503 325° Northwest  Level FlightAware Approximate
04:58AM 25.6320 -90.7284 325° Northwest  Level FlightAware Approximate
04:59AM 25.7338 -90.8066 325° Northwest  Level FlightAware Approximate
05:00AM 25.8356 -90.8849 325° Northwest  Level FlightAware Approximate
05:01AM 25.9373 -90.9633 325° Northwest  Level FlightAware Approximate
05:02AM 26.0390 -91.0419 325° Northwest  Level FlightAware Approximate
05:03AM 26.1407 -91.1207 325° Northwest  Level FlightAware Approximate
05:04AM 26.2423 -91.1996 325° Northwest  Level FlightAware Approximate
05:05AM 26.3439 -91.2786 325° Northwest  Level FlightAware Approximate
05:06AM 26.4450 -91.3584 325° Northwest  Level FlightAware Approximate
05:07AM 26.5461 -91.4383 325° Northwest  Level FlightAware Approximate
05:08AM 26.6471 -91.5184 325° Northwest  Level FlightAware Approximate
05:09AM 26.7481 -91.5987 325° Northwest  Level FlightAware Approximate
05:09AM 27.0602 -91.8822 325° Northwest 438 504 38,000  Level FlightAware ADS-B
05:10AM 26.8490 -91.6791 325° Northwest  Level FlightAware Approximate
05:10AM 27.1269 -91.9508 318° Northwest 439 505 38,000  Level FlightAware ADS-B
05:11AM 27.1811 -92.0072 318° Northwest 438 504 37,900  Descending Houston Center
05:16AM 27.6988 -92.5433 318° Northwest 443 510 38,000  Climbing FlightAware ADS-B
05:17AM 27.7450 -92.5914 317° Northwest 442 509 38,000  Level FlightAware ADS-B
05:17AM 27.7939 -92.6426 317° Northwest 442 509 38,000  Level FlightAware ADS-B
05:19AM 27.9008 -92.7547 317° Northwest 443 510 38,000  Level FlightAware ADS-B
05:20AM 27.9900 -92.8484 317° Northwest 443 510 38,000 -60 Level FlightAware ADS-B
05:21AM 28.1017 -92.9694 317° Northwest 443 510 37,900 -240 Descending Houston Center
05:22AM 28.1922 -93.0631 318° Northwest 441 507 37,500 -720 Descending Houston Center
05:23AM 28.2822 -93.1586 317° Northwest 443 510 36,500 -900 Descending Houston Center
05:24AM 28.3667 -93.2478 317° Northwest 444 511 35,700 -960 Descending Houston Center
05:29AM 28.8620 -93.7760 317° Northwest 452 520 30,500 -600 Descending FlightAware
05:33AM 29.1490 -94.0940 316° Northwest 452 520 30,500 -1,860 Level FlightAware
05:33AM 29.2123 -94.1555 320° Northwest 408 470 23,200 -11,220 Descending FlightAware ADS-B
05:34AM 29.2530 -94.1999 316° Northwest 401 461 22,100 -2,100 Descending FlightAware ADS-B
05:34AM 29.2935 -94.2442 316° Northwest 395 455 21,100 -2,040 Descending FlightAware ADS-B
05:35AM 29.3337 -94.2879 317° Northwest 387 445 20,000 -2,100 Descending FlightAware ADS-B
05:35AM 29.3729 -94.3305 317° Northwest 381 438 19,000 -2,040 Descending FlightAware ADS-B
05:36AM 29.4109 -94.3720 316° Northwest 373 429 18,000 -1,980 Descending FlightAware ADS-B
05:36AM 29.4485 -94.4133 316° Northwest 368 423 17,000 -1,980 Descending FlightAware ADS-B
05:37AM 29.4856 -94.4540 316° Northwest 365 420 16,000 -2,040 Descending FlightAware ADS-B
05:37AM 29.5222 -94.4939 317° Northwest 361 415 15,000 -2,040 Descending FlightAware ADS-B
05:38AM 29.5583 -94.5335 316° Northwest 356 410 14,000 -2,040 Descending FlightAware ADS-B
05:38AM 29.5938 -94.5725 316° Northwest 351 404 13,000 -1,920 Descending FlightAware ADS-B
05:39AM 29.6288 -94.6112 316° Northwest 347 399 12,100 -1,920 Descending FlightAware ADS-B
05:39AM 29.6638 -94.6496 316° Northwest 342 394 11,100 -1,800 Descending FlightAware ADS-B
05:40AM 29.6980 -94.6873 316° Northwest 334 384 10,300 -1,140 Descending FlightAware ADS-B
05:40AM 29.7283 -94.7208 316° Northwest 312 359 10,000 -720 Descending FlightAware ADS-B
05:41AM 29.7438 -94.7380 316° Northwest 301 346 9,800 -1,020 Descending FlightAware ADS-B
05:41AM 29.7591 -94.7550 316° Northwest 298 343 9,500 -1,380 Descending FlightAware ADS-B
05:41AM 29.7744 -94.7719 316° Northwest 297 342 9,100 -1,620 Descending FlightAware ADS-B
05:41AM 29.7893 -94.7883 316° Northwest 295 339 8,700 -1,620 Descending FlightAware ADS-B
05:42AM 29.8042 -94.8048 316° Northwest 293 337 8,300 -1,380 Descending FlightAware ADS-B
05:42AM 29.8191 -94.8213 316° Northwest 292 336 8,000 -1,380 Descending FlightAware ADS-B
05:42AM 29.8339 -94.8376 316° Northwest 291 335 7,600 -1,620 Descending FlightAware ADS-B
05:42AM 29.8488 -94.8542 316° Northwest 289 333 7,200 -1,380 Descending FlightAware ADS-B
05:43AM 29.8634 -94.8705 316° Northwest 288 331 6,900 -1,380 Descending FlightAware ADS-B
05:43AM 29.8780 -94.8865 316° Northwest 286 329 6,500 -1,440 Descending FlightAware ADS-B
05:43AM 29.8922 -94.9022 316° Northwest 285 328 6,200 -1,440 Descending FlightAware ADS-B
05:43AM 29.9064 -94.9179 316° Northwest 284 327 5,800 -1,440 Descending FlightAware ADS-B
05:44AM 29.9205 -94.9336 316° Northwest 283 326 5,500 -1,440 Descending FlightAware ADS-B
05:44AM 29.9348 -94.9494 316° Northwest 282 325 5,100 -1,440 Descending FlightAware ADS-B
05:44AM 29.9489 -94.9651 316° Northwest 279 321 4,800 -840 Descending FlightAware ADS-B
05:44AM 29.9623 -94.9800 316° Northwest 270 311 4,700 -600 Descending FlightAware ADS-B
05:44AM 29.9676 -94.9860 316° Northwest 266 306 4,600 -600 Descending FlightAware ADS-B
05:45AM 29.9702 -94.9894 311° West 263 303 4,600  Level FlightAware ADS-B
05:45AM 29.9729 -94.9941 304° West 258 297 4,600 -900 Level FlightAware ADS-B
05:45AM 29.9747 -94.9983 296° West 253 291 4,500 -900 Descending FlightAware ADS-B
05:45AM 29.9760 -95.0025 290° West 249 287 4,500  Level FlightAware ADS-B
05:45AM 29.9770 -95.0078 282° West 244 281 4,500 -780 Level FlightAware ADS-B
05:45AM 29.9774 -95.0126 275° West 240 276 4,400 -900 Descending FlightAware ADS-B
05:45AM 29.9775 -95.0165 272° West 238 274 4,400 -600 Level FlightAware ADS-B
05:45AM 29.9773 -95.0272 269° West 233 268 4,300 -360 Descending FlightAware ADS-B
05:45AM 29.9772 -95.0395 269° West 226 260 4,300 -300 Level FlightAware ADS-B
05:45AM 29.9774 -95.0538 271° West 215 247 4,200 -660 Descending FlightAware ADS-B
05:46AM 29.9776 -95.0707 271° West 208 239 4,000 -1,020 Descending FlightAware ADS-B
05:46AM 29.9777 -95.0876 270° West 205 236 3,700 -1,140 Descending FlightAware ADS-B
05:46AM 29.9777 -95.1057 270° West 199 229 3,400 -1,140 Descending FlightAware ADS-B
05:46AM 29.9776 -95.1215 270° West 193 222 3,100 -1,200 Descending FlightAware ADS-B
05:47AM 29.9776 -95.1370 270° West 188 216 2,800 -1,020 Descending FlightAware ADS-B
05:47AM 29.9776 -95.1518 270° West 184 212 2,600 -1,020 Descending FlightAware ADS-B
05:47AM 29.9776 -95.1665 270° West 179 206 2,300 -960 Descending FlightAware ADS-B
05:47AM 29.9775 -95.1757 269° West 176 203 2,200 -720 Descending FlightAware ADS-B
05:48AM 29.9775 -95.1894 270° West 167 192 2,000 -960 Descending FlightAware ADS-B
05:48AM 29.9775 -95.2089 270° West 153 176 1,600 -960 Descending FlightAware ADS-B
05:48AM 29.9775 -95.2214 270° West 147 169 1,400 -660 Descending FlightAware ADS-B
05:48AM 29.9774 -95.2313 269° West 146 168 1,300 -660 Descending FlightAware ADS-B
05:49AM 29.9774 -95.2431 270° West 146 168 1,100 -840 Descending FlightAware ADS-B
05:49AM 29.9776 -95.2490 272° West 147 169 1,000 -960 Descending FlightAware ADS-B
05:49AM 29.9778 -95.2539 273° West 147 169 900 -840 Descending FlightAware ADS-B
05:49AM 29.9779 -95.2605 271° West 146 168 800 -840 Descending FlightAware ADS-B
05:49AM 29.9778 -95.2714 269° West 146 168 600 -960 Descending FlightAware ADS-B
05:50AM 29.9776 -95.2804 269° West 146 168 400 -780 Descending FlightAware ADS-B
05:50AM 29.9776 -95.2905 270° West 148 170 300 -720 Descending FlightAware ADS-B
05:50AM 29.9776 -95.3012 270° West 151 174 100 -900 Descending FlightAware ADS-B